sensor_id;sensor_type;location;lat;lon;timestamp;P1;durP1;ratioP1;P2;durP2;ratioP2
63902;SDS011;50072;50.678;13.938;2024-01-10T00:02:05;65.15;;;19.27;;
63902;SDS011;50072;50.678;13.938;2024-01-10T00:07:10;56.85;;;18.85;;
63902;SDS011;50072;50.678;13.938;2024-01-10T00:09:37;74.28;;;22.23;;
63902;SDS011;50072;50.678;13.938;2024-01-10T00:12:03;68.05;;;20.70;;
63902;SDS011;50072;50.678;13.938;2024-01-10T00:14:38;60.42;;;18.80;;
63902;SDS011;50072;50.678;13.938;2024-01-10T00:17:09;59.22;;;17.48;;
63902;SDS011;50072;50.678;13.938;2024-01-10T00:19:37;50.70;;;17.35;;
63902;SDS011;50072;50.678;13.938;2024-01-10T00:22:03;75.22;;;21.88;;
63902;SDS011;50072;50.678;13.938;2024-01-10T00:24:29;74.65;;;22.35;;
63902;SDS011;50072;50.678;13.938;2024-01-10T00:27:03;86.90;;;24.30;;
63902;SDS011;50072;50.678;13.938;2024-01-10T00:29:33;114.72;;;30.33;;
63902;SDS011;50072;50.678;13.938;2024-01-10T00:32:01;83.45;;;23.08;;
63902;SDS011;50072;50.678;13.938;2024-01-10T00:34:33;81.50;;;23.42;;
63902;SDS011;50072;50.678;13.938;2024-01-10T00:37:01;77.88;;;21.70;;
63902;SDS011;50072;50.678;13.938;2024-01-10T00:39:33;67.80;;;21.42;;
63902;SDS011;50072;50.678;13.938;2024-01-10T00:42:03;88.40;;;24.23;;
63902;SDS011;50072;50.678;13.938;2024-01-10T00:47:04;108.25;;;26.40;;
63902;SDS011;50072;50.678;13.938;2024-01-10T00:49:38;92.65;;;25.95;;
63902;SDS011;50072;50.678;13.938;2024-01-10T00:52:08;87.25;;;24.27;;
63902;SDS011;50072;50.678;13.938;2024-01-10T00:54:37;91.05;;;24.15;;
63902;SDS011;50072;50.678;13.938;2024-01-10T00:57:03;92.13;;;24.15;;
63902;SDS011;50072;50.678;13.938;2024-01-10T00:59:30;74.65;;;21.58;;
63902;SDS011;50072;50.678;13.938;2024-01-10T01:02:08;74.03;;;20.88;;
63902;SDS011;50072;50.678;13.938;2024-01-10T01:04:40;86.10;;;24.23;;
63902;SDS011;50072;50.678;13.938;2024-01-10T01:07:07;73.13;;;22.27;;
63902;SDS011;50072;50.678;13.938;2024-01-10T01:09:39;70.10;;;21.52;;
63902;SDS011;50072;50.678;13.938;2024-01-10T01:12:07;70.88;;;17.10;;
63902;SDS011;50072;50.678;13.938;2024-01-10T01:14:35;88.85;;;23.15;;
63902;SDS011;50072;50.678;13.938;2024-01-10T01:17:07;92.55;;;22.27;;
63902;SDS011;50072;50.678;13.938;2024-01-10T01:22:03;71.43;;;20.52;;
63902;SDS011;50072;50.678;13.938;2024-01-10T01:24:33;72.25;;;22.10;;
63902;SDS011;50072;50.678;13.938;2024-01-10T01:27:05;86.60;;;24.35;;
63902;SDS011;50072;50.678;13.938;2024-01-10T01:29:38;79.05;;;24.05;;
63902;SDS011;50072;50.678;13.938;2024-01-10T01:32:03;66.18;;;19.08;;
63902;SDS011;50072;50.678;13.938;2024-01-10T01:34:32;70.28;;;21.08;;
63902;SDS011;50072;50.678;13.938;2024-01-10T01:36:57;70.22;;;21.85;;
63902;SDS011;50072;50.678;13.938;2024-01-10T01:39:32;75.50;;;21.55;;
63902;SDS011;50072;50.678;13.938;2024-01-10T01:42:08;93.43;;;22.38;;
63902;SDS011;50072;50.678;13.938;2024-01-10T01:47:08;62.72;;;17.70;;
63902;SDS011;50072;50.678;13.938;2024-01-10T01:49:35;57.83;;;18.08;;
63902;SDS011;50072;50.678;13.938;2024-01-10T01:52:02;65.10;;;17.73;;
63902;SDS011;50072;50.678;13.938;2024-01-10T01:54:34;51.75;;;17.83;;
63902;SDS011;50072;50.678;13.938;2024-01-10T01:57:03;58.47;;;18.52;;
63902;SDS011;50072;50.678;13.938;2024-01-10T01:59:35;62.58;;;18.02;;
63902;SDS011;50072;50.678;13.938;2024-01-10T02:02:03;58.70;;;17.73;;
63902;SDS011;50072;50.678;13.938;2024-01-10T02:04:33;57.65;;;17.95;;
63902;SDS011;50072;50.678;13.938;2024-01-10T02:07:05;55.13;;;17.95;;
63902;SDS011;50072;50.678;13.938;2024-01-10T02:09:38;61.88;;;18.95;;
63902;SDS011;50072;50.678;13.938;2024-01-10T02:12:06;66.68;;;19.50;;
63902;SDS011;50072;50.678;13.938;2024-01-10T02:14:33;64.63;;;19.67;;
63902;SDS011;50072;50.678;13.938;2024-01-10T02:19:35;74.55;;;20.63;;
63902;SDS011;50072;50.678;13.938;2024-01-10T02:22:03;66.37;;;19.23;;
63902;SDS011;50072;50.678;13.938;2024-01-10T02:24:35;66.38;;;18.08;;
63902;SDS011;50072;50.678;13.938;2024-01-10T02:27:08;61.08;;;17.27;;
63902;SDS011;50072;50.678;13.938;2024-01-10T02:29:39;63.22;;;18.83;;
63902;SDS011;50072;50.678;13.938;2024-01-10T02:32:08;66.40;;;18.85;;
63902;SDS011;50072;50.678;13.938;2024-01-10T02:34:36;60.78;;;17.52;;
63902;SDS011;50072;50.678;13.938;2024-01-10T02:37:08;66.55;;;19.85;;
63902;SDS011;50072;50.678;13.938;2024-01-10T02:44:35;73.82;;;22.45;;
63902;SDS011;50072;50.678;13.938;2024-01-10T02:47:03;89.85;;;22.30;;
63902;SDS011;50072;50.678;13.938;2024-01-10T02:49:33;74.60;;;21.23;;
63902;SDS011;50072;50.678;13.938;2024-01-10T02:52:05;80.47;;;20.52;;
63902;SDS011;50072;50.678;13.938;2024-01-10T02:54:38;65.50;;;21.58;;
63902;SDS011;50072;50.678;13.938;2024-01-10T02:57:08;71.78;;;22.42;;
63902;SDS011;50072;50.678;13.938;2024-01-10T03:02:03;79.13;;;22.05;;
63902;SDS011;50072;50.678;13.938;2024-01-10T03:04:30;64.13;;;19.27;;
63902;SDS011;50072;50.678;13.938;2024-01-10T03:07:08;60.58;;;20.65;;
63902;SDS011;50072;50.678;13.938;2024-01-10T03:09:34;73.35;;;23.02;;
63902;SDS011;50072;50.678;13.938;2024-01-10T03:12:10;89.75;;;23.50;;
63902;SDS011;50072;50.678;13.938;2024-01-10T03:14:38;86.10;;;24.08;;
63902;SDS011;50072;50.678;13.938;2024-01-10T03:17:09;93.55;;;25.63;;
63902;SDS011;50072;50.678;13.938;2024-01-10T03:19:37;92.68;;;24.83;;
63902;SDS011;50072;50.678;13.938;2024-01-10T03:22:08;103.70;;;27.00;;
63902;SDS011;50072;50.678;13.938;2024-01-10T03:27:04;82.68;;;26.58;;
63902;SDS011;50072;50.678;13.938;2024-01-10T03:29:36;75.70;;;22.05;;
63902;SDS011;50072;50.678;13.938;2024-01-10T03:32:03;80.47;;;24.30;;
63902;SDS011;50072;50.678;13.938;2024-01-10T03:34:38;89.70;;;24.80;;
63902;SDS011;50072;50.678;13.938;2024-01-10T03:37:03;165.95;;;27.77;;
63902;SDS011;50072;50.678;13.938;2024-01-10T03:39:30;129.73;;;26.23;;
63902;SDS011;50072;50.678;13.938;2024-01-10T03:42:03;100.55;;;26.48;;
63902;SDS011;50072;50.678;13.938;2024-01-10T03:44:38;90.40;;;24.63;;
63902;SDS011;50072;50.678;13.938;2024-01-10T03:47:03;72.85;;;22.13;;
63902;SDS011;50072;50.678;13.938;2024-01-10T03:49:30;75.43;;;22.45;;
63902;SDS011;50072;50.678;13.938;2024-01-10T03:52:03;71.95;;;22.90;;
63902;SDS011;50072;50.678;13.938;2024-01-10T03:54:35;80.78;;;22.13;;
63902;SDS011;50072;50.678;13.938;2024-01-10T03:59:38;70.75;;;20.60;;
63902;SDS011;50072;50.678;13.938;2024-01-10T04:02:09;70.40;;;20.48;;
63902;SDS011;50072;50.678;13.938;2024-01-10T04:04:37;77.80;;;20.77;;
63902;SDS011;50072;50.678;13.938;2024-01-10T04:07:04;77.40;;;23.02;;
63902;SDS011;50072;50.678;13.938;2024-01-10T04:09:38;73.93;;;23.45;;
63902;SDS011;50072;50.678;13.938;2024-01-10T04:12:04;69.55;;;20.52;;
63902;SDS011;50072;50.678;13.938;2024-01-10T04:14:37;72.20;;;21.08;;
63902;SDS011;50072;50.678;13.938;2024-01-10T04:17:03;74.13;;;21.33;;
63902;SDS011;50072;50.678;13.938;2024-01-10T04:19:38;75.63;;;21.83;;
63902;SDS011;50072;50.678;13.938;2024-01-10T04:22:07;79.43;;;20.92;;
63902;SDS011;50072;50.678;13.938;2024-01-10T04:24:36;63.50;;;20.52;;
63902;SDS011;50072;50.678;13.938;2024-01-10T04:27:01;67.18;;;21.02;;
63902;SDS011;50072;50.678;13.938;2024-01-10T04:34:33;68.88;;;19.90;;
63902;SDS011;50072;50.678;13.938;2024-01-10T04:37:01;58.22;;;19.30;;
63902;SDS011;50072;50.678;13.938;2024-01-10T04:39:29;80.55;;;23.13;;
63902;SDS011;50072;50.678;13.938;2024-01-10T04:42:08;66.43;;;21.30;;
63902;SDS011;50072;50.678;13.938;2024-01-10T04:44:37;70.40;;;20.20;;
63902;SDS011;50072;50.678;13.938;2024-01-10T04:47:10;65.07;;;20.30;;
63902;SDS011;50072;50.678;13.938;2024-01-10T04:49:37;74.57;;;19.95;;
63902;SDS011;50072;50.678;13.938;2024-01-10T04:52:03;81.45;;;21.67;;
63902;SDS011;50072;50.678;13.938;2024-01-10T04:54:30;67.13;;;21.15;;
63902;SDS011;50072;50.678;13.938;2024-01-10T04:56:59;86.65;;;24.42;;
63902;SDS011;50072;50.678;13.938;2024-01-10T04:59:25;84.75;;;24.27;;
63902;SDS011;50072;50.678;13.938;2024-01-10T05:01:50;141.02;;;31.48;;
63902;SDS011;50072;50.678;13.938;2024-01-10T05:04:17;113.35;;;27.27;;
63902;SDS011;50072;50.678;13.938;2024-01-10T05:06:45;117.05;;;30.65;;
63902;SDS011;50072;50.678;13.938;2024-01-10T05:09:11;122.80;;;29.98;;
63902;SDS011;50072;50.678;13.938;2024-01-10T05:11:38;126.32;;;26.88;;
63902;SDS011;50072;50.678;13.938;2024-01-10T05:14:04;101.05;;;26.92;;
63902;SDS011;50072;50.678;13.938;2024-01-10T05:16:29;109.35;;;27.52;;
63902;SDS011;50072;50.678;13.938;2024-01-10T05:19:08;100.55;;;26.40;;
63902;SDS011;50072;50.678;13.938;2024-01-10T05:21:34;91.25;;;26.65;;
63902;SDS011;50072;50.678;13.938;2024-01-10T05:24:01;87.75;;;25.15;;
63902;SDS011;50072;50.678;13.938;2024-01-10T05:26:27;88.43;;;25.67;;
63902;SDS011;50072;50.678;13.938;2024-01-10T05:28:53;81.78;;;23.60;;
63902;SDS011;50072;50.678;13.938;2024-01-10T05:31:19;77.63;;;22.77;;
63902;SDS011;50072;50.678;13.938;2024-01-10T05:33:45;78.78;;;23.55;;
63902;SDS011;50072;50.678;13.938;2024-01-10T05:36:11;76.57;;;21.63;;
63902;SDS011;50072;50.678;13.938;2024-01-10T05:38:37;61.70;;;19.88;;
63902;SDS011;50072;50.678;13.938;2024-01-10T05:41:03;74.93;;;24.58;;
63902;SDS011;50072;50.678;13.938;2024-01-10T05:43:29;82.82;;;21.98;;
63902;SDS011;50072;50.678;13.938;2024-01-10T05:45:55;79.00;;;22.70;;
63902;SDS011;50072;50.678;13.938;2024-01-10T05:48:21;62.80;;;20.52;;
63902;SDS011;50072;50.678;13.938;2024-01-10T05:50:47;66.10;;;19.90;;
63902;SDS011;50072;50.678;13.938;2024-01-10T05:53:13;69.25;;;22.52;;
63902;SDS011;50072;50.678;13.938;2024-01-10T05:55:42;72.50;;;19.55;;
63902;SDS011;50072;50.678;13.938;2024-01-10T05:58:09;64.57;;;20.98;;
63902;SDS011;50072;50.678;13.938;2024-01-10T06:00:36;71.10;;;20.40;;
63902;SDS011;50072;50.678;13.938;2024-01-10T06:03:02;63.50;;;20.80;;
63902;SDS011;50072;50.678;13.938;2024-01-10T06:05:28;68.90;;;19.77;;
63902;SDS011;50072;50.678;13.938;2024-01-10T06:07:55;69.18;;;20.20;;
63902;SDS011;50072;50.678;13.938;2024-01-10T06:10:21;75.47;;;23.23;;
63902;SDS011;50072;50.678;13.938;2024-01-10T06:12:47;92.60;;;24.20;;
63902;SDS011;50072;50.678;13.938;2024-01-10T06:15:13;84.53;;;23.80;;
63902;SDS011;50072;50.678;13.938;2024-01-10T06:17:40;94.18;;;25.50;;
63902;SDS011;50072;50.678;13.938;2024-01-10T06:20:07;83.55;;;23.17;;
63902;SDS011;50072;50.678;13.938;2024-01-10T06:22:33;72.90;;;22.75;;
63902;SDS011;50072;50.678;13.938;2024-01-10T06:25:00;74.03;;;23.88;;
63902;SDS011;50072;50.678;13.938;2024-01-10T06:27:27;75.72;;;22.52;;
63902;SDS011;50072;50.678;13.938;2024-01-10T06:29:54;71.85;;;21.90;;
63902;SDS011;50072;50.678;13.938;2024-01-10T06:32:20;79.85;;;22.20;;
63902;SDS011;50072;50.678;13.938;2024-01-10T06:34:45;86.85;;;24.13;;
63902;SDS011;50072;50.678;13.938;2024-01-10T06:37:11;77.35;;;25.10;;
63902;SDS011;50072;50.678;13.938;2024-01-10T06:39:37;101.00;;;29.17;;
63902;SDS011;50072;50.678;13.938;2024-01-10T06:42:03;88.20;;;24.45;;
63902;SDS011;50072;50.678;13.938;2024-01-10T06:44:31;92.05;;;26.10;;
63902;SDS011;50072;50.678;13.938;2024-01-10T06:46:57;82.35;;;24.48;;
63902;SDS011;50072;50.678;13.938;2024-01-10T06:49:23;73.43;;;22.33;;
63902;SDS011;50072;50.678;13.938;2024-01-10T06:51:50;69.20;;;21.70;;
63902;SDS011;50072;50.678;13.938;2024-01-10T06:54:16;59.75;;;19.42;;
63902;SDS011;50072;50.678;13.938;2024-01-10T06:56:43;56.22;;;19.70;;
63902;SDS011;50072;50.678;13.938;2024-01-10T06:59:09;58.65;;;20.33;;
63902;SDS011;50072;50.678;13.938;2024-01-10T07:01:35;59.45;;;19.77;;
63902;SDS011;50072;50.678;13.938;2024-01-10T07:04:02;60.20;;;19.20;;
63902;SDS011;50072;50.678;13.938;2024-01-10T07:09:03;64.28;;;20.75;;
63902;SDS011;50072;50.678;13.938;2024-01-10T07:11:33;64.30;;;20.00;;
63902;SDS011;50072;50.678;13.938;2024-01-10T07:16:33;64.47;;;18.70;;
63902;SDS011;50072;50.678;13.938;2024-01-10T07:19:05;82.80;;;22.45;;
63902;SDS011;50072;50.678;13.938;2024-01-10T07:21:37;62.60;;;19.83;;
63902;SDS011;50072;50.678;13.938;2024-01-10T07:24:02;68.60;;;21.60;;
63902;SDS011;50072;50.678;13.938;2024-01-10T07:26:38;90.65;;;25.20;;
63902;SDS011;50072;50.678;13.938;2024-01-10T07:29:05;87.90;;;25.13;;
63902;SDS011;50072;50.678;13.938;2024-01-10T07:31:37;74.15;;;24.08;;
63902;SDS011;50072;50.678;13.938;2024-01-10T07:36:36;65.50;;;21.38;;
63902;SDS011;50072;50.678;13.938;2024-01-10T07:39:07;72.50;;;21.73;;
63902;SDS011;50072;50.678;13.938;2024-01-10T07:41:33;64.53;;;19.70;;
63902;SDS011;50072;50.678;13.938;2024-01-10T07:44:06;63.28;;;18.60;;
63902;SDS011;50072;50.678;13.938;2024-01-10T07:46:37;83.95;;;22.52;;
63902;SDS011;50072;50.678;13.938;2024-01-10T07:49:04;67.97;;;21.10;;
63902;SDS011;50072;50.678;13.938;2024-01-10T07:51:36;75.47;;;21.48;;
63902;SDS011;50072;50.678;13.938;2024-01-10T07:54:08;59.05;;;19.17;;
63902;SDS011;50072;50.678;13.938;2024-01-10T07:56:35;76.43;;;23.50;;
63902;SDS011;50072;50.678;13.938;2024-01-10T07:59:06;74.63;;;24.55;;
63902;SDS011;50072;50.678;13.938;2024-01-10T08:01:33;75.82;;;22.88;;
63902;SDS011;50072;50.678;13.938;2024-01-10T08:04:04;77.65;;;22.70;;
63902;SDS011;50072;50.678;13.938;2024-01-10T08:06:37;84.05;;;27.33;;
63902;SDS011;50072;50.678;13.938;2024-01-10T08:09:03;80.38;;;25.08;;
63902;SDS011;50072;50.678;13.938;2024-01-10T08:14:03;86.10;;;25.95;;
63902;SDS011;50072;50.678;13.938;2024-01-10T08:19:08;91.25;;;28.55;;
63902;SDS011;50072;50.678;13.938;2024-01-10T08:21:38;85.10;;;25.17;;
63902;SDS011;50072;50.678;13.938;2024-01-10T08:24:05;73.90;;;24.20;;
63902;SDS011;50072;50.678;13.938;2024-01-10T08:26:33;82.47;;;25.83;;
63902;SDS011;50072;50.678;13.938;2024-01-10T08:34:08;73.25;;;24.50;;
63902;SDS011;50072;50.678;13.938;2024-01-10T08:39:04;92.28;;;24.67;;
63902;SDS011;50072;50.678;13.938;2024-01-10T08:41:37;80.75;;;26.13;;
63902;SDS011;50072;50.678;13.938;2024-01-10T08:49:30;79.45;;;24.55;;
63902;SDS011;50072;50.678;13.938;2024-01-10T08:52:02;78.65;;;25.85;;
63902;SDS011;50072;50.678;13.938;2024-01-10T08:54:33;82.07;;;27.45;;
63902;SDS011;50072;50.678;13.938;2024-01-10T08:57:05;84.75;;;24.75;;
63902;SDS011;50072;50.678;13.938;2024-01-10T09:02:04;94.80;;;28.73;;
63902;SDS011;50072;50.678;13.938;2024-01-10T09:04:33;88.88;;;28.95;;
63902;SDS011;50072;50.678;13.938;2024-01-10T09:09:35;86.55;;;29.90;;
63902;SDS011;50072;50.678;13.938;2024-01-10T09:12:07;104.38;;;33.03;;
63902;SDS011;50072;50.678;13.938;2024-01-10T09:14:33;93.30;;;32.05;;
63902;SDS011;50072;50.678;13.938;2024-01-10T09:17:03;97.88;;;32.08;;
63902;SDS011;50072;50.678;13.938;2024-01-10T09:19:31;86.47;;;30.30;;
63902;SDS011;50072;50.678;13.938;2024-01-10T09:22:08;84.97;;;28.02;;
63902;SDS011;50072;50.678;13.938;2024-01-10T09:24:33;75.85;;;26.25;;
63902;SDS011;50072;50.678;13.938;2024-01-10T09:27:04;77.43;;;27.55;;
63902;SDS011;50072;50.678;13.938;2024-01-10T09:29:37;73.35;;;24.90;;
63902;SDS011;50072;50.678;13.938;2024-01-10T09:32:09;73.22;;;25.45;;
63902;SDS011;50072;50.678;13.938;2024-01-10T09:34:38;75.50;;;28.58;;
63902;SDS011;50072;50.678;13.938;2024-01-10T09:37:04;84.78;;;27.23;;
63902;SDS011;50072;50.678;13.938;2024-01-10T09:39:30;86.95;;;30.02;;
63902;SDS011;50072;50.678;13.938;2024-01-10T09:42:03;79.85;;;30.65;;
63902;SDS011;50072;50.678;13.938;2024-01-10T09:44:38;80.57;;;29.13;;
63902;SDS011;50072;50.678;13.938;2024-01-10T09:47:10;79.80;;;28.35;;
63902;SDS011;50072;50.678;13.938;2024-01-10T09:49:38;83.70;;;29.15;;
63902;SDS011;50072;50.678;13.938;2024-01-10T09:52:08;75.43;;;29.50;;
63902;SDS011;50072;50.678;13.938;2024-01-10T09:54:38;72.85;;;27.35;;
63902;SDS011;50072;50.678;13.938;2024-01-10T09:57:08;72.53;;;27.90;;
63902;SDS011;50072;50.678;13.938;2024-01-10T09:59:38;76.75;;;28.98;;
63902;SDS011;50072;50.678;13.938;2024-01-10T10:02:09;77.72;;;29.58;;
63902;SDS011;50072;50.678;13.938;2024-01-10T10:04:38;80.28;;;28.25;;
63902;SDS011;50072;50.678;13.938;2024-01-10T10:07:10;74.40;;;29.80;;
63902;SDS011;50072;50.678;13.938;2024-01-10T10:09:35;74.22;;;28.42;;
63902;SDS011;50072;50.678;13.938;2024-01-10T10:12:04;73.72;;;28.63;;
63902;SDS011;50072;50.678;13.938;2024-01-10T10:14:30;76.63;;;30.00;;
63902;SDS011;50072;50.678;13.938;2024-01-10T10:17:00;79.72;;;31.52;;
63902;SDS011;50072;50.678;13.938;2024-01-10T10:19:40;67.13;;;28.92;;
63902;SDS011;50072;50.678;13.938;2024-01-10T10:22:10;69.60;;;29.15;;
63902;SDS011;50072;50.678;13.938;2024-01-10T10:24:37;62.95;;;27.02;;
63902;SDS011;50072;50.678;13.938;2024-01-10T10:27:08;60.60;;;27.13;;
63902;SDS011;50072;50.678;13.938;2024-01-10T10:29:38;77.40;;;30.55;;
63902;SDS011;50072;50.678;13.938;2024-01-10T10:32:05;65.32;;;28.13;;
63902;SDS011;50072;50.678;13.938;2024-01-10T10:34:33;66.82;;;25.88;;
63902;SDS011;50072;50.678;13.938;2024-01-10T10:37:01;75.82;;;31.42;;
63902;SDS011;50072;50.678;13.938;2024-01-10T10:39:28;62.47;;;26.92;;
63902;SDS011;50072;50.678;13.938;2024-01-10T10:41:55;64.05;;;28.25;;
63902;SDS011;50072;50.678;13.938;2024-01-10T10:44:24;70.38;;;29.73;;
63902;SDS011;50072;50.678;13.938;2024-01-10T10:46:52;67.50;;;29.05;;
63902;SDS011;50072;50.678;13.938;2024-01-10T10:49:28;69.97;;;28.95;;
63902;SDS011;50072;50.678;13.938;2024-01-10T10:51:58;71.40;;;31.50;;
63902;SDS011;50072;50.678;13.938;2024-01-10T10:54:28;70.63;;;29.98;;
63902;SDS011;50072;50.678;13.938;2024-01-10T10:56:59;66.25;;;29.27;;
63902;SDS011;50072;50.678;13.938;2024-01-10T10:59:28;70.28;;;30.60;;
63902;SDS011;50072;50.678;13.938;2024-01-10T11:01:57;65.65;;;29.45;;
63902;SDS011;50072;50.678;13.938;2024-01-10T11:04:23;66.70;;;29.45;;
63902;SDS011;50072;50.678;13.938;2024-01-10T11:06:52;75.60;;;31.23;;
63902;SDS011;50072;50.678;13.938;2024-01-10T11:09:19;83.15;;;33.80;;
63902;SDS011;50072;50.678;13.938;2024-01-10T11:11:59;67.28;;;29.33;;
63902;SDS011;50072;50.678;13.938;2024-01-10T11:18:21;96.18;;;51.65;;
63902;SDS011;50072;50.678;13.938;2024-01-10T11:20:37;58.17;;;27.60;;
63902;SDS011;50072;50.678;13.938;2024-01-10T11:23:59;58.42;;;26.98;;
63902;SDS011;50072;50.678;13.938;2024-01-10T11:26:16;60.17;;;27.63;;
63902;SDS011;50072;50.678;13.938;2024-01-10T11:28:56;50.05;;;22.67;;
63902;SDS011;50072;50.678;13.938;2024-01-10T11:31:34;51.90;;;24.20;;
63902;SDS011;50072;50.678;13.938;2024-01-10T11:34:04;48.05;;;22.55;;
63902;SDS011;50072;50.678;13.938;2024-01-10T11:39:04;47.38;;;20.95;;
63902;SDS011;50072;50.678;13.938;2024-01-10T11:41:38;48.20;;;21.65;;
63902;SDS011;50072;50.678;13.938;2024-01-10T11:47:04;47.67;;;19.80;;
63902;SDS011;50072;50.678;13.938;2024-01-10T11:49:37;44.25;;;19.63;;
63902;SDS011;50072;50.678;13.938;2024-01-10T11:52:04;49.80;;;19.67;;
63902;SDS011;50072;50.678;13.938;2024-01-10T11:54:38;40.55;;;17.08;;
63902;SDS011;50072;50.678;13.938;2024-01-10T11:59:59;45.95;;;16.83;;
63902;SDS011;50072;50.678;13.938;2024-01-10T12:07:34;39.65;;;15.13;;
63902;SDS011;50072;50.678;13.938;2024-01-10T12:12:34;40.97;;;16.45;;
63902;SDS011;50072;50.678;13.938;2024-01-10T12:15:07;38.80;;;14.73;;
63902;SDS011;50072;50.678;13.938;2024-01-10T12:17:37;37.97;;;15.10;;
63902;SDS011;50072;50.678;13.938;2024-01-10T12:20:09;36.13;;;14.80;;
63902;SDS011;50072;50.678;13.938;2024-01-10T12:22:38;36.20;;;14.48;;
63902;SDS011;50072;50.678;13.938;2024-01-10T12:25:06;38.33;;;13.90;;
63902;SDS011;50072;50.678;13.938;2024-01-10T12:27:34;37.40;;;13.80;;
63902;SDS011;50072;50.678;13.938;2024-01-10T12:30:08;33.03;;;12.63;;
63902;SDS011;50072;50.678;13.938;2024-01-10T12:32:33;34.80;;;14.07;;
63902;SDS011;50072;50.678;13.938;2024-01-10T12:35:04;33.78;;;12.85;;
63902;SDS011;50072;50.678;13.938;2024-01-10T12:37:34;35.25;;;13.88;;
63902;SDS011;50072;50.678;13.938;2024-01-10T12:42:37;40.92;;;14.02;;
63902;SDS011;50072;50.678;13.938;2024-01-10T12:45:04;41.47;;;15.05;;
63902;SDS011;50072;50.678;13.938;2024-01-10T12:47:31;40.05;;;14.35;;
63902;SDS011;50072;50.678;13.938;2024-01-10T12:50:08;33.40;;;14.35;;
63902;SDS011;50072;50.678;13.938;2024-01-10T12:52:35;40.33;;;15.65;;
63902;SDS011;50072;50.678;13.938;2024-01-10T12:55:08;41.72;;;14.82;;
63902;SDS011;50072;50.678;13.938;2024-01-10T12:57:34;32.72;;;14.45;;
63902;SDS011;50072;50.678;13.938;2024-01-10T13:00:08;39.65;;;14.00;;
63902;SDS011;50072;50.678;13.938;2024-01-10T13:02:37;31.15;;;11.52;;
63902;SDS011;50072;50.678;13.938;2024-01-10T13:05:09;33.55;;;12.85;;
63902;SDS011;50072;50.678;13.938;2024-01-10T13:07:38;40.03;;;12.50;;
63902;SDS011;50072;50.678;13.938;2024-01-10T13:10:10;39.50;;;11.90;;
63902;SDS011;50072;50.678;13.938;2024-01-10T13:12:38;29.13;;;11.43;;
63902;SDS011;50072;50.678;13.938;2024-01-10T13:15:08;36.03;;;11.57;;
63902;SDS011;50072;50.678;13.938;2024-01-10T13:17:41;30.70;;;12.07;;
63902;SDS011;50072;50.678;13.938;2024-01-10T13:20:07;32.55;;;12.50;;
63902;SDS011;50072;50.678;13.938;2024-01-10T13:22:38;30.77;;;12.10;;
63902;SDS011;50072;50.678;13.938;2024-01-10T13:25:04;34.13;;;12.57;;
63902;SDS011;50072;50.678;13.938;2024-01-10T13:27:38;29.80;;;12.13;;
63902;SDS011;50072;50.678;13.938;2024-01-10T13:30:11;30.42;;;12.55;;
63902;SDS011;50072;50.678;13.938;2024-01-10T13:32:38;34.10;;;11.20;;
63902;SDS011;50072;50.678;13.938;2024-01-10T13:35:10;25.20;;;10.10;;
63902;SDS011;50072;50.678;13.938;2024-01-10T13:37:37;28.88;;;10.75;;
63902;SDS011;50072;50.678;13.938;2024-01-10T13:40:04;30.20;;;11.07;;
63902;SDS011;50072;50.678;13.938;2024-01-10T13:42:31;24.88;;;10.70;;
63902;SDS011;50072;50.678;13.938;2024-01-10T13:44:59;29.63;;;11.15;;
63902;SDS011;50072;50.678;13.938;2024-01-10T13:47:25;27.63;;;11.40;;
63902;SDS011;50072;50.678;13.938;2024-01-10T13:49:52;25.25;;;10.65;;
63902;SDS011;50072;50.678;13.938;2024-01-10T13:52:19;24.63;;;11.10;;
63902;SDS011;50072;50.678;13.938;2024-01-10T13:54:46;30.08;;;11.05;;
63902;SDS011;50072;50.678;13.938;2024-01-10T13:57:14;32.47;;;10.32;;
63902;SDS011;50072;50.678;13.938;2024-01-10T13:59:41;29.42;;;12.38;;
63902;SDS011;50072;50.678;13.938;2024-01-10T14:02:07;28.65;;;11.85;;
63902;SDS011;50072;50.678;13.938;2024-01-10T14:04:34;30.10;;;10.95;;
63902;SDS011;50072;50.678;13.938;2024-01-10T14:06:59;23.83;;;9.02;;
63902;SDS011;50072;50.678;13.938;2024-01-10T14:09:26;28.73;;;11.65;;
63902;SDS011;50072;50.678;13.938;2024-01-10T14:11:53;73.47;;;27.42;;
63902;SDS011;50072;50.678;13.938;2024-01-10T14:14:20;70.22;;;25.75;;
63902;SDS011;50072;50.678;13.938;2024-01-10T14:16:46;48.10;;;17.40;;
63902;SDS011;50072;50.678;13.938;2024-01-10T14:19:15;42.13;;;16.92;;
63902;SDS011;50072;50.678;13.938;2024-01-10T14:21:45;32.78;;;12.70;;
63902;SDS011;50072;50.678;13.938;2024-01-10T14:24:13;23.42;;;9.98;;
63902;SDS011;50072;50.678;13.938;2024-01-10T14:26:39;24.10;;;9.70;;
63902;SDS011;50072;50.678;13.938;2024-01-10T14:29:06;28.02;;;11.52;;
63902;SDS011;50072;50.678;13.938;2024-01-10T14:31:33;29.40;;;12.02;;
63902;SDS011;50072;50.678;13.938;2024-01-10T14:34:00;34.67;;;12.95;;
63902;SDS011;50072;50.678;13.938;2024-01-10T14:36:28;34.17;;;13.38;;
63902;SDS011;50072;50.678;13.938;2024-01-10T14:38:55;35.70;;;14.75;;
63902;SDS011;50072;50.678;13.938;2024-01-10T14:41:21;38.88;;;16.42;;
63902;SDS011;50072;50.678;13.938;2024-01-10T14:43:48;42.38;;;17.48;;
63902;SDS011;50072;50.678;13.938;2024-01-10T14:46:14;56.35;;;24.05;;
63902;SDS011;50072;50.678;13.938;2024-01-10T14:48:41;45.53;;;20.83;;
63902;SDS011;50072;50.678;13.938;2024-01-10T14:51:08;44.47;;;19.88;;
63902;SDS011;50072;50.678;13.938;2024-01-10T14:53:36;45.30;;;18.38;;
63902;SDS011;50072;50.678;13.938;2024-01-10T14:56:04;38.95;;;17.77;;
63902;SDS011;50072;50.678;13.938;2024-01-10T14:58:32;34.05;;;13.68;;
63902;SDS011;50072;50.678;13.938;2024-01-10T15:00:58;37.78;;;15.13;;
63902;SDS011;50072;50.678;13.938;2024-01-10T15:03:26;33.42;;;13.02;;
63902;SDS011;50072;50.678;13.938;2024-01-10T15:05:54;27.23;;;12.18;;
63902;SDS011;50072;50.678;13.938;2024-01-10T15:08:21;38.58;;;14.05;;
63902;SDS011;50072;50.678;13.938;2024-01-10T15:10:47;31.65;;;13.15;;
63902;SDS011;50072;50.678;13.938;2024-01-10T15:13:14;37.03;;;13.20;;
63902;SDS011;50072;50.678;13.938;2024-01-10T15:15:43;32.05;;;12.93;;
63902;SDS011;50072;50.678;13.938;2024-01-10T15:18:11;48.05;;;14.40;;
63902;SDS011;50072;50.678;13.938;2024-01-10T15:20:39;38.30;;;14.77;;
63902;SDS011;50072;50.678;13.938;2024-01-10T15:23:09;34.53;;;13.50;;
63902;SDS011;50072;50.678;13.938;2024-01-10T15:25:36;36.60;;;14.00;;
63902;SDS011;50072;50.678;13.938;2024-01-10T15:28:04;33.10;;;14.57;;
63902;SDS011;50072;50.678;13.938;2024-01-10T15:30:30;41.30;;;15.68;;
63902;SDS011;50072;50.678;13.938;2024-01-10T15:33:00;50.28;;;16.15;;
63902;SDS011;50072;50.678;13.938;2024-01-10T15:35:26;55.95;;;18.40;;
63902;SDS011;50072;50.678;13.938;2024-01-10T15:37:54;46.17;;;17.40;;
63902;SDS011;50072;50.678;13.938;2024-01-10T15:40:20;67.20;;;20.00;;
63902;SDS011;50072;50.678;13.938;2024-01-10T15:42:50;59.35;;;19.35;;